Time;durP1;ratioP1;P1;durP2;ratioP2;P2;SDS_P1;SDS_P2;PMS_P1;PMS_P2;Temp;Humidity;BMP_temperature;BMP_pressure;BME280_temperature;BME280_humidity;BME280_pressure;Samples;Min_cycle;Max_cycle;Signal;HPM_P1;HPM_P2
2022/06/30 00:02:41;;;;;;;4.35;2.60;;;;;;;;;;4923520;29;20044;-80
2022/06/30 00:05:27;;;;;;;5.18;2.80;;;;;;;;;;4917255;29;20398;-81
2022/06/30 00:08:12;;;;;;;3.35;2.70;;;;;;;;;;4916794;29;20036;-81
2022/06/30 00:11:06;;;;;;;4.82;3.38;;;;;;;;;;4917055;29;20044;-81
2022/06/30 00:13:52;;;;;;;8.60;3.90;;;;;;;;;;4916595;29;20048;-80
2022/06/30 00:16:37;;;;;;;11.98;4.35;;;;;;;;;;4911513;29;20044;-80
2022/06/30 00:19:23;;;;;;;9.07;4.28;;;;;;;;;;4916892;29;20052;-80
2022/06/30 00:22:10;;;;;;;8.25;5.00;;;;;;;;;;4920268;29;20044;-80
2022/06/30 00:24:55;;;;;;;10.30;4.47;;;;;;;;;;4920391;29;20044;-81
2022/06/30 00:27:41;;;;;;;9.75;4.45;;;;;;;;;;4920499;29;20052;-81
2022/06/30 00:30:26;;;;;;;9.23;4.85;;;;;;;;;;4920243;29;20052;-81
2022/06/30 00:33:12;;;;;;;11.43;4.93;;;;;;;;;;4920352;29;20044;-81
2022/06/30 00:35:58;;;;;;;7.40;4.30;;;;;;;;;;4920201;29;20039;-82
2022/06/30 00:38:43;;;;;;;8.45;3.83;;;;;;;;;;4926538;29;20397;-80
2022/06/30 00:41:29;;;;;;;5.85;3.72;;;;;;;;;;4920070;29;20044;-81
2022/06/30 00:44:18;;;;;;;8.57;4.00;;;;;;;;;;4919894;29;20060;-81
2022/06/30 00:47:05;;;;;;;4.97;3.95;;;;;;;;;;4919849;29;20044;-81
2022/06/30 00:49:51;;;;;;;6.72;4.40;;;;;;;;;;4926155;29;20044;-80
2022/06/30 00:52:37;;;;;;;8.55;4.32;;;;;;;;;;4920069;29;20048;-81
2022/06/30 00:55:22;;;;;;;8.95;4.55;;;;;;;;;;4919787;29;20049;-82
2022/06/30 00:58:09;;;;;;;6.93;4.45;;;;;;;;;;4919758;29;20486;-83
2022/06/30 01:00:54;;;;;;;8.70;3.85;;;;;;;;;;4919810;29;20040;-81
2022/06/30 01:03:43;;;;;;;12.07;3.47;;;;;;;;;;4914341;29;20048;-81
2022/06/30 01:06:29;;;;;;;7.78;3.05;;;;;;;;;;4931874;29;20048;-81
2022/06/30 01:12:44;;;;;;;10.80;3.30;;;;;;;;;;4904465;29;20048;-81
2022/06/30 01:15:30;;;;;;;7.90;3.53;;;;;;;;;;4919221;29;20052;-77
2022/06/30 01:18:15;;;;;;;8.10;3.10;;;;;;;;;;4925690;29;20418;-76
2022/06/30 01:21:02;;;;;;;4.13;3.17;;;;;;;;;;4919401;29;20044;-77
2022/06/30 01:23:46;;;;;;;8.52;3.28;;;;;;;;;;4919260;29;20044;-77
2022/06/30 01:26:32;;;;;;;6.55;3.33;;;;;;;;;;4919613;29;20056;-76
2022/06/30 01:29:17;;;;;;;4.80;3.00;;;;;;;;;;4919157;29;20044;-77
2022/06/30 01:32:04;;;;;;;4.50;3.03;;;;;;;;;;4924391;29;20048;-76
2022/06/30 01:34:48;;;;;;;5.10;3.03;;;;;;;;;;4919358;29;20056;-77
2022/06/30 01:37:55;;;;;;;7.30;2.65;;;;;;;;;;4918714;29;20044;-77
2022/06/30 01:40:40;;;;;;;4.07;2.65;;;;;;;;;;4919200;29;20398;-76
2022/06/30 01:43:25;;;;;;;7.03;2.63;;;;;;;;;;4918755;29;20043;-77
2022/06/30 01:46:10;;;;;;;3.55;2.60;;;;;;;;;;4918798;29;20048;-78
2022/06/30 01:48:55;;;;;;;3.17;2.42;;;;;;;;;;4925187;29;20044;-77
2022/06/30 01:51:41;;;;;;;3.53;2.55;;;;;;;;;;4918671;29;20052;-77
2022/06/30 01:54:26;;;;;;;6.38;2.60;;;;;;;;;;4925197;29;20052;-77
2022/06/30 01:57:11;;;;;;;8.52;2.55;;;;;;;;;;4918545;29;20052;-77
2022/06/30 01:59:57;;;;;;;4.97;2.60;;;;;;;;;;4910505;29;20490;-76
2022/06/30 02:02:42;;;;;;;5.85;2.83;;;;;;;;;;4910831;29;20040;-77
2022/06/30 02:05:27;;;;;;;5.97;3.08;;;;;;;;;;4918406;29;20040;-83
2022/06/30 02:08:13;;;;;;;5.13;3.33;;;;;;;;;;4918545;29;20052;-76
2022/06/30 02:10:58;;;;;;;5.88;3.15;;;;;;;;;;4919080;29;20048;-76
2022/06/30 02:13:44;;;;;;;7.15;3.50;;;;;;;;;;4918018;29;20048;-76
2022/06/30 02:16:30;;;;;;;4.45;3.00;;;;;;;;;;4918578;29;20052;-77
2022/06/30 02:19:15;;;;;;;6.45;3.50;;;;;;;;;;4919021;29;20056;-76
2022/06/30 02:22:00;;;;;;;5.63;3.50;;;;;;;;;;4924541;29;20073;-77
2022/06/30 02:24:46;;;;;;;6.60;4.07;;;;;;;;;;4925408;29;20471;-77
2022/06/30 02:27:32;;;;;;;27.83;19.50;;;;;;;;;;4917892;29;20048;-76
2022/06/30 02:30:18;;;;;;;10.18;5.30;;;;;;;;;;4917699;29;20063;-76
2022/06/30 02:33:03;;;;;;;8.55;5.68;;;;;;;;;;4917988;29;20478;-77
2022/06/30 02:35:49;;;;;;;7.57;4.70;;;;;;;;;;4917795;29;20040;-78
2022/06/30 02:38:34;;;;;;;5.68;3.70;;;;;;;;;;4917930;29;20048;-78
2022/06/30 02:41:21;;;;;;;8.38;4.60;;;;;;;;;;4924019;29;20044;-78
2022/06/30 02:44:06;;;;;;;9.48;4.75;;;;;;;;;;4917595;29;20044;-78
2022/06/30 02:46:54;;;;;;;6.78;4.43;;;;;;;;;;4917815;29;20048;-78
2022/06/30 02:49:40;;;;;;;5.55;4.20;;;;;;;;;;4917415;29;20494;-78
2022/06/30 02:52:25;;;;;;;8.75;4.60;;;;;;;;;;4917690;29;20048;-77
2022/06/30 02:55:11;;;;;;;7.78;4.70;;;;;;;;;;4917768;29;20048;-79
2022/06/30 02:57:56;;;;;;;9.30;4.60;;;;;;;;;;4917603;29;20048;-77
2022/06/30 03:00:42;;;;;;;10.68;4.43;;;;;;;;;;4917587;29;20048;-78
2022/06/30 03:03:27;;;;;;;7.50;4.65;;;;;;;;;;4923854;29;20490;-78
2022/06/30 03:06:13;;;;;;;9.43;4.82;;;;;;;;;;4917634;29;20047;-78
2022/06/30 03:09:00;;;;;;;7.72;4.70;;;;;;;;;;4923806;29;20386;-78
2022/06/30 03:11:45;;;;;;;6.82;4.05;;;;;;;;;;4923977;29;20044;-78
2022/06/30 03:14:31;;;;;;;9.25;4.15;;;;;;;;;;4916467;29;20056;-77
2022/06/30 03:17:16;;;;;;;8.73;3.88;;;;;;;;;;4916465;29;20048;-78
2022/06/30 03:20:02;;;;;;;8.00;4.30;;;;;;;;;;4916711;29;20494;-78
2022/06/30 03:22:48;;;;;;;11.32;4.43;;;;;;;;;;4916159;29;20052;-77
2022/06/30 03:25:33;;;;;;;8.38;3.90;;;;;;;;;;4916162;29;20052;-78
2022/06/30 03:28:19;;;;;;;6.05;4.05;;;;;;;;;;4916561;29;20041;-77
2022/06/30 03:31:04;;;;;;;6.47;4.25;;;;;;;;;;4916404;29;20056;-78
2022/06/30 03:33:50;;;;;;;10.25;4.03;;;;;;;;;;4922730;29;20052;-77
2022/06/30 03:36:36;;;;;;;6.20;3.80;;;;;;;;;;4916725;29;20043;-78
2022/06/30 03:39:21;;;;;;;7.90;4.20;;;;;;;;;;4921362;29;20044;-77
2022/06/30 03:42:07;;;;;;;7.18;4.15;;;;;;;;;;4916346;29;20048;-77
2022/06/30 03:44:52;;;;;;;8.73;3.88;;;;;;;;;;4915961;29;20040;-76
2022/06/30 03:47:38;;;;;;;5.80;3.95;;;;;;;;;;4916098;29;20048;-76
2022/06/30 03:50:23;;;;;;;9.88;3.97;;;;;;;;;;4908324;29;20040;-78
2022/06/30 03:53:08;;;;;;;8.63;4.18;;;;;;;;;;4916052;29;20052;-77
2022/06/30 03:55:54;;;;;;;7.15;4.07;;;;;;;;;;4917502;29;20044;-77
2022/06/30 03:58:39;;;;;;;10.38;4.28;;;;;;;;;;4919107;29;20048;-77
2022/06/30 04:01:25;;;;;;;8.25;4.00;;;;;;;;;;4919298;29;20401;-77
2022/06/30 04:04:10;;;;;;;8.75;4.18;;;;;;;;;;4919424;29;20052;-77
2022/06/30 04:06:56;;;;;;;8.90;4.10;;;;;;;;;;4919182;29;20040;-76
2022/06/30 04:09:41;;;;;;;13.27;4.35;;;;;;;;;;4919268;29;20052;-77
2022/06/30 04:12:27;;;;;;;10.00;4.72;;;;;;;;;;4919045;29;20048;-78
2022/06/30 04:15:13;;;;;;;12.52;4.57;;;;;;;;;;4880442;29;1206449;-78
2022/06/30 04:17:58;;;;;;;8.07;4.38;;;;;;;;;;4926638;29;20044;-77
2022/06/30 04:20:44;;;;;;;8.55;4.80;;;;;;;;;;4920192;29;20040;-78
2022/06/30 04:23:29;;;;;;;8.98;4.68;;;;;;;;;;4920373;29;20044;-77
2022/06/30 04:26:16;;;;;;;8.68;4.47;;;;;;;;;;4920072;29;20052;-78
2022/06/30 04:29:02;;;;;;;12.35;5.30;;;;;;;;;;4920012;29;20052;-77
2022/06/30 04:34:51;;;;;;;14.83;4.60;;;;;;;;;;4919932;29;20410;-78
2022/06/30 04:37:38;;;;;;;6.68;4.68;;;;;;;;;;4919968;29;20048;-78
2022/06/30 04:43:28;;;;;;;10.00;5.32;;;;;;;;;;4919911;29;20048;-77
2022/06/30 04:46:14;;;;;;;8.88;4.35;;;;;;;;;;4928757;29;20044;-80
2022/06/30 04:49:00;;;;;;;12.65;4.78;;;;;;;;;;4919351;29;20044;-78
2022/06/30 04:51:48;;;;;;;13.82;4.90;;;;;;;;;;4920158;29;20485;-77
2022/06/30 04:54:34;;;;;;;9.80;4.80;;;;;;;;;;4919561;29;20044;-77
2022/06/30 04:57:19;;;;;;;12.13;4.60;;;;;;;;;;4919650;29;20430;-77
2022/06/30 05:00:06;;;;;;;15.68;4.50;;;;;;;;;;4919282;29;20052;-78
2022/06/30 05:02:52;;;;;;;8.93;4.32;;;;;;;;;;4919162;29;20055;-78
2022/06/30 05:05:37;;;;;;;8.30;3.88;;;;;;;;;;4918894;29;20044;-78
2022/06/30 05:08:23;;;;;;;8.23;4.13;;;;;;;;;;4918532;29;20478;-78
2022/06/30 05:11:08;;;;;;;7.15;4.30;;;;;;;;;;4919127;29;20048;-77
2022/06/30 05:13:54;;;;;;;9.95;4.75;;;;;;;;;;4919075;29;20406;-77
2022/06/30 05:16:39;;;;;;;13.10;4.70;;;;;;;;;;4925645;29;20051;-77
2022/06/30 05:19:25;;;;;;;18.08;4.75;;;;;;;;;;4918916;29;20048;-77
2022/06/30 05:22:10;;;;;;;8.73;4.45;;;;;;;;;;4918741;29;20044;-78
2022/06/30 05:28:01;;;;;;;7.03;4.13;;;;;;;;;;4918897;29;20044;-77
2022/06/30 05:30:47;;;;;;;9.23;4.60;;;;;;;;;;4918580;29;20497;-78
2022/06/30 05:33:32;;;;;;;10.52;4.30;;;;;;;;;;4919284;29;20405;-77
2022/06/30 05:36:17;;;;;;;8.48;4.20;;;;;;;;;;4918861;29;20048;-77
2022/06/30 05:39:03;;;;;;;7.47;4.40;;;;;;;;;;4919204;29;20060;-77
2022/06/30 05:41:49;;;;;;;11.43;4.30;;;;;;;;;;4919053;29;20044;-77
2022/06/30 05:44:34;;;;;;;7.50;4.03;;;;;;;;;;4918869;29;20040;-77
2022/06/30 05:47:20;;;;;;;8.70;4.47;;;;;;;;;;4925084;29;20048;-77
2022/06/30 05:50:06;;;;;;;9.45;4.32;;;;;;;;;;4918409;29;20040;-77
2022/06/30 05:52:51;;;;;;;14.52;4.70;;;;;;;;;;4918711;29;20040;-77
2022/06/30 05:55:37;;;;;;;9.38;4.70;;;;;;;;;;4918786;29;20041;-77
2022/06/30 05:58:22;;;;;;;11.15;4.65;;;;;;;;;;4918457;29;20048;-77
2022/06/30 06:01:08;;;;;;;7.90;4.43;;;;;;;;;;4918668;29;20486;-77
2022/06/30 06:03:53;;;;;;;9.02;4.78;;;;;;;;;;4917602;29;20044;-79
2022/06/30 06:06:39;;;;;;;6.82;4.32;;;;;;;;;;4918293;29;20044;-77
2022/06/30 06:09:25;;;;;;;11.10;4.38;;;;;;;;;;4924443;29;20047;-78
2022/06/30 06:12:12;;;;;;;8.98;4.10;;;;;;;;;;4918022;29;20044;-77
2022/06/30 06:14:58;;;;;;;5.60;4.07;;;;;;;;;;4918004;29;20052;-77
2022/06/30 06:17:45;;;;;;;7.30;3.75;;;;;;;;;;4917474;29;20044;-78
2022/06/30 06:20:31;;;;;;;8.30;3.78;;;;;;;;;;4918326;29;20406;-78
2022/06/30 06:23:16;;;;;;;9.38;3.88;;;;;;;;;;4917747;29;20040;-78
2022/06/30 06:26:02;;;;;;;9.63;3.70;;;;;;;;;;4924163;29;20067;-77
2022/06/30 06:29:06;;;;;;;8.40;3.47;;;;;;;;;;4917936;29;20053;-78
2022/06/30 06:31:51;;;;;;;9.47;4.00;;;;;;;;;;4917315;29;20052;-78
2022/06/30 06:34:37;;;;;;;8.30;3.80;;;;;;;;;;4917948;29;20044;-79
2022/06/30 06:37:22;;;;;;;9.05;4.22;;;;;;;;;;4917726;29;20044;-79
2022/06/30 06:40:09;;;;;;;7.78;4.20;;;;;;;;;;4917465;29;20060;-79
2022/06/30 06:42:54;;;;;;;6.32;4.00;;;;;;;;;;4917752;29;20394;-79
2022/06/30 06:45:40;;;;;;;11.40;3.88;;;;;;;;;;4923378;29;20052;-79
2022/06/30 06:48:25;;;;;;;7.60;3.88;;;;;;;;;;4917616;29;20048;-78
2022/06/30 06:51:11;;;;;;;6.57;3.83;;;;;;;;;;4917290;29;20418;-78
2022/06/30 06:53:57;;;;;;;8.38;3.95;;;;;;;;;;4909138;29;20056;-78
2022/06/30 06:56:42;;;;;;;7.65;3.90;;;;;;;;;;4923901;29;20051;-78
2022/06/30 06:59:28;;;;;;;8.90;4.03;;;;;;;;;;4923573;29;20403;-78
2022/06/30 07:02:14;;;;;;;13.40;4.20;;;;;;;;;;4917948;29;20048;-77
2022/06/30 07:04:59;;;;;;;9.05;4.15;;;;;;;;;;4905605;29;20398;-76
2022/06/30 07:07:45;;;;;;;4.55;3.80;;;;;;;;;;4917085;29;20048;-79
2022/06/30 07:10:30;;;;;;;14.07;4.15;;;;;;;;;;4920517;29;20040;-76
2022/06/30 07:13:16;;;;;;;9.63;4.10;;;;;;;;;;4920843;29;20048;-77
2022/06/30 07:16:02;;;;;;;8.73;3.65;;;;;;;;;;4918679;29;20056;-75
2022/06/30 07:18:48;;;;;;;7.10;3.88;;;;;;;;;;4917268;29;20048;-79
2022/06/30 07:21:34;;;;;;;8.32;3.83;;;;;;;;;;4918091;29;20406;-77
2022/06/30 07:24:19;;;;;;;7.47;3.67;;;;;;;;;;4917820;29;20059;-78
2022/06/30 07:27:05;;;;;;;7.70;4.00;;;;;;;;;;4917154;29;20406;-79
2022/06/30 07:29:51;;;;;;;7.07;3.72;;;;;;;;;;4920071;29;20052;-79
2022/06/30 07:32:37;;;;;;;10.40;3.50;;;;;;;;;;4933593;29;20044;-79
2022/06/30 07:35:22;;;;;;;7.40;3.60;;;;;;;;;;4920893;29;20044;-79
2022/06/30 07:38:07;;;;;;;6.72;3.80;;;;;;;;;;4921244;29;20044;-80
2022/06/30 07:40:53;;;;;;;8.82;3.75;;;;;;;;;;4927602;29;20056;-79
2022/06/30 07:43:38;;;;;;;7.50;3.88;;;;;;;;;;4949481;23;20059;-80
2022/06/30 07:46:24;;;;;;;6.30;3.72;;;;;;;;;;4940544;29;20052;-81
2022/06/30 07:49:09;;;;;;;7.22;4.00;;;;;;;;;;4939212;29;20051;-80
2022/06/30 07:51:55;;;;;;;9.70;4.00;;;;;;;;;;4945938;29;20048;-80
2022/06/30 07:54:41;;;;;;;8.15;4.10;;;;;;;;;;4944364;29;20052;-78
2022/06/30 07:57:27;;;;;;;17.95;13.50;;;;;;;;;;4941806;29;20044;-79
2022/06/30 08:00:13;;;;;;;11.23;4.10;;;;;;;;;;4939743;29;20047;-80
2022/06/30 08:02:58;;;;;;;6.90;3.75;;;;;;;;;;4941766;29;20048;-78
2022/06/30 08:05:44;;;;;;;10.80;7.40;;;;;;;;;;4951804;29;20048;-79
2022/06/30 08:08:30;;;;;;;8.85;4.40;;;;;;;;;;4945699;29;20048;-78
2022/06/30 08:11:16;;;;;;;10.82;4.57;;;;;;;;;;4942623;29;20047;-78
2022/06/30 08:14:01;;;;;;;6.35;3.90;;;;;;;;;;4940901;29;20494;-79
2022/06/30 08:16:47;;;;;;;12.57;6.75;;;;;;;;;;4941164;29;20048;-80
2022/06/30 08:19:33;;;;;;;5.63;3.97;;;;;;;;;;4939318;29;20052;-79
2022/06/30 08:22:19;;;;;;;15.23;6.22;;;;;;;;;;4938841;29;20043;-77
2022/06/30 08:25:05;;;;;;;8.80;4.45;;;;;;;;;;4939248;29;20048;-78
2022/06/30 08:27:50;;;;;;;11.45;4.40;;;;;;;;;;4939120;29;20055;-75
2022/06/30 08:30:35;;;;;;;10.18;4.60;;;;;;;;;;4938507;29;20406;-78
2022/06/30 08:33:21;;;;;;;7.38;4.15;;;;;;;;;;4939546;29;20043;-78
2022/06/30 08:36:08;;;;;;;9.13;4.35;;;;;;;;;;4944884;29;20509;-78
2022/06/30 08:38:53;;;;;;;13.65;4.90;;;;;;;;;;4925937;29;20051;-78
2022/06/30 08:44:43;;;;;;;15.83;4.73;;;;;;;;;;4938454;29;20048;-78
2022/06/30 08:47:29;;;;;;;12.77;4.65;;;;;;;;;;4938573;29;20413;-77
2022/06/30 08:50:17;;;;;;;10.50;4.47;;;;;;;;;;4937989;29;20047;-79
2022/06/30 08:53:03;;;;;;;9.40;4.32;;;;;;;;;;4938629;29;20397;-80
2022/06/30 08:55:50;;;;;;;10.68;4.50;;;;;;;;;;4945341;29;20422;-81
2022/06/30 08:58:38;;;;;;;8.38;4.50;;;;;;;;;;4937976;29;20405;-78
2022/06/30 09:01:23;;;;;;;11.02;4.30;;;;;;;;;;4938752;29;20514;-80
2022/06/30 09:04:12;;;;;;;9.55;4.53;;;;;;;;;;4944463;29;20051;-78
2022/06/30 09:06:58;;;;;;;12.63;4.65;;;;;;;;;;4938145;29;20047;-80
2022/06/30 09:09:43;;;;;;;10.43;4.63;;;;;;;;;;4938414;29;20047;-80
2022/06/30 09:12:29;;;;;;;17.00;4.43;;;;;;;;;;4929925;29;20048;-78
2022/06/30 09:15:14;;;;;;;11.73;4.40;;;;;;;;;;4938213;29;20048;-79
2022/06/30 09:18:01;;;;;;;8.18;4.25;;;;;;;;;;4937817;29;20047;-77
2022/06/30 09:20:45;;;;;;;10.23;4.38;;;;;;;;;;4937920;29;20051;-79
2022/06/30 09:23:30;;;;;;;11.63;4.50;;;;;;;;;;4938213;29;20043;-79
2022/06/30 09:26:22;;;;;;;14.43;4.93;;;;;;;;;;4937506;29;20047;-77
2022/06/30 09:29:11;;;;;;;11.30;5.05;;;;;;;;;;4937868;29;20056;-80
2022/06/30 09:31:56;;;;;;;10.68;4.38;;;;;;;;;;4937787;29;20056;-82
2022/06/30 09:34:43;;;;;;;12.18;4.55;;;;;;;;;;4940236;29;20482;-77
2022/06/30 09:37:28;;;;;;;16.85;4.88;;;;;;;;;;4937121;29;20051;-79
2022/06/30 09:40:14;;;;;;;11.57;4.35;;;;;;;;;;4938420;29;20048;-78
2022/06/30 09:43:01;;;;;;;8.80;4.57;;;;;;;;;;4937954;29;20044;-80
2022/06/30 09:45:47;;;;;;;7.40;4.00;;;;;;;;;;4937687;29;20051;-79
2022/06/30 09:48:33;;;;;;;10.70;4.55;;;;;;;;;;4936981;29;20048;-80
2022/06/30 09:51:18;;;;;;;12.98;5.03;;;;;;;;;;4937645;29;20047;-77
2022/06/30 09:54:09;;;;;;;14.00;4.53;;;;;;;;;;4937528;29;20424;-75
2022/06/30 09:57:06;;;;;;;11.13;4.13;;;;;;;;;;4938143;29;20044;-79
2022/06/30 09:59:59;;;;;;;16.58;4.82;;;;;;;;;;4937590;29;20055;-78
2022/06/30 10:02:47;;;;;;;8.90;4.35;;;;;;;;;;4937004;29;20047;-78
2022/06/30 10:05:32;;;;;;;12.05;4.70;;;;;;;;;;4938014;29;20043;-80
2022/06/30 10:08:19;;;;;;;12.75;4.50;;;;;;;;;;4937229;29;20036;-79
2022/06/30 10:11:06;;;;;;;6.97;4.57;;;;;;;;;;4936650;29;20501;-79
2022/06/30 10:13:52;;;;;;;9.02;4.13;;;;;;;;;;4936800;29;20067;-79
2022/06/30 10:16:41;;;;;;;8.75;4.25;;;;;;;;;;4937220;29;20044;-81
2022/06/30 10:19:26;;;;;;;12.60;4.43;;;;;;;;;;4936902;29;20048;-80
2022/06/30 10:22:12;;;;;;;10.43;4.85;;;;;;;;;;4943383;29;20047;-79
2022/06/30 10:24:58;;;;;;;10.57;4.63;;;;;;;;;;4922520;29;20047;-79
2022/06/30 10:27:45;;;;;;;9.73;4.97;;;;;;;;;;4943384;29;20382;-79
2022/06/30 10:30:50;;;;;;;15.35;4.88;;;;;;;;;;4936715;29;20513;-80
2022/06/30 10:33:43;;;;;;;8.73;4.47;;;;;;;;;;4936003;29;20047;-80
2022/06/30 10:36:32;;;;;;;19.65;4.57;;;;;;;;;;4936173;29;20051;-80
2022/06/30 10:39:46;;;;;;;8.55;4.45;;;;;;;;;;4936765;29;20489;-79
2022/06/30 10:42:47;;;;;;;9.55;4.22;;;;;;;;;;4936526;29;20048;-78
2022/06/30 10:45:34;;;;;;;13.77;4.68;;;;;;;;;;4936748;29;20047;-81
2022/06/30 10:48:20;;;;;;;8.20;4.20;;;;;;;;;;4936540;29;20044;-80
2022/06/30 10:51:13;;;;;;;11.15;4.40;;;;;;;;;;4936246;29;20043;-81
2022/06/30 10:53:59;;;;;;;11.05;4.35;;;;;;;;;;4936004;29;20043;-79
2022/06/30 10:56:53;;;;;;;15.77;4.60;;;;;;;;;;4936054;29;20060;-80
2022/06/30 10:59:41;;;;;;;7.85;3.90;;;;;;;;;;4936286;29;20047;-81
2022/06/30 11:02:26;;;;;;;9.77;4.30;;;;;;;;;;4943159;29;20047;-80
2022/06/30 11:05:24;;;;;;;7.82;3.72;;;;;;;;;;4936345;29;20048;-80
2022/06/30 11:08:47;;;;;;;10.32;4.05;;;;;;;;;;4936498;29;20393;-80
2022/06/30 11:11:34;;;;;;;7.28;4.20;;;;;;;;;;4936238;29;20069;-78
2022/06/30 11:14:20;;;;;;;10.75;4.30;;;;;;;;;;4942977;29;20036;-79
2022/06/30 11:17:26;;;;;;;8.20;3.90;;;;;;;;;;4936788;29;20048;-78
2022/06/30 11:20:14;;;;;;;9.27;3.70;;;;;;;;;;4936690;29;20052;-78
2022/06/30 11:23:01;;;;;;;8.55;3.55;;;;;;;;;;4928137;29;20048;-82
2022/06/30 11:28:50;;;;;;;7.95;4.00;;;;;;;;;;4936361;29;20490;-80
2022/06/30 11:31:39;;;;;;;10.40;4.15;;;;;;;;;;4936156;29;20052;-79
2022/06/30 11:34:24;;;;;;;6.05;3.50;;;;;;;;;;4952330;29;20047;-79
2022/06/30 11:37:10;;;;;;;9.10;4.13;;;;;;;;;;4961672;28;20043;-77
2022/06/30 11:40:04;;;;;;;8.77;4.03;;;;;;;;;;4955080;29;20043;-77
2022/06/30 11:42:51;;;;;;;7.88;3.70;;;;;;;;;;4951166;28;20091;-80
2022/06/30 11:45:36;;;;;;;6.25;3.78;;;;;;;;;;4942679;29;20040;-77
2022/06/30 11:48:22;;;;;;;9.18;3.83;;;;;;;;;;4936030;29;20043;-80
2022/06/30 11:51:11;;;;;;;8.48;3.88;;;;;;;;;;4935705;29;20044;-79
2022/06/30 11:53:57;;;;;;;7.38;3.22;;;;;;;;;;4935919;29;20043;-79
2022/06/30 11:56:51;;;;;;;11.45;3.90;;;;;;;;;;4942503;29;20035;-77
2022/06/30 11:59:45;;;;;;;7.60;3.40;;;;;;;;;;4936289;29;20482;-77
2022/06/30 12:02:32;;;;;;;6.32;3.67;;;;;;;;;;4941968;29;20056;-79
2022/06/30 12:05:24;;;;;;;7.15;3.60;;;;;;;;;;4921757;29;20048;-79
2022/06/30 12:08:11;;;;;;;6.00;3.45;;;;;;;;;;4935771;29;20390;-80
2022/06/30 12:10:57;;;;;;;10.80;3.47;;;;;;;;;;4935239;29;20044;-79
2022/06/30 12:13:43;;;;;;;8.18;3.63;;;;;;;;;;4935754;29;20397;-78
2022/06/30 12:16:28;;;;;;;10.65;3.65;;;;;;;;;;4936388;29;20091;-80
2022/06/30 12:19:15;;;;;;;5.90;3.45;;;;;;;;;;4939075;29;20486;-78
2022/06/30 12:22:02;;;;;;;8.77;3.80;;;;;;;;;;4939230;29;20051;-80
2022/06/30 12:24:49;;;;;;;9.30;3.38;;;;;;;;;;4939120;29;20052;-78
2022/06/30 12:27:42;;;;;;;8.98;3.90;;;;;;;;;;4939145;29;20048;-80
2022/06/30 12:30:34;;;;;;;8.02;3.92;;;;;;;;;;4938678;29;20052;-81
2022/06/30 12:33:20;;;;;;;7.60;3.78;;;;;;;;;;4945124;29;20059;-80
2022/06/30 12:36:06;;;;;;;7.07;3.72;;;;;;;;;;4939013;29;20620;-81
2022/06/30 12:38:51;;;;;;;9.77;3.80;;;;;;;;;;4938980;29;20056;-81
2022/06/30 12:41:37;;;;;;;10.00;3.38;;;;;;;;;;4945147;29;20035;-78
2022/06/30 12:44:34;;;;;;;6.80;3.53;;;;;;;;;;4945290;29;20044;-82
2022/06/30 12:47:21;;;;;;;6.95;3.83;;;;;;;;;;4938805;29;20047;-78
2022/06/30 12:50:21;;;;;;;7.18;3.63;;;;;;;;;;4938839;29;20051;-78
2022/06/30 12:53:22;;;;;;;7.40;3.72;;;;;;;;;;4938653;29;20044;-81
2022/06/30 12:56:07;;;;;;;7.40;3.45;;;;;;;;;;4941803;29;20493;-78
2022/06/30 12:58:59;;;;;;;5.82;3.60;;;;;;;;;;4941138;29;20408;-81
2022/06/30 13:01:56;;;;;;;5.72;3.40;;;;;;;;;;4940619;29;20055;-81
2022/06/30 13:04:52;;;;;;;7.28;3.55;;;;;;;;;;4941082;29;20040;-79
2022/06/30 13:07:38;;;;;;;8.98;3.38;;;;;;;;;;4940161;29;20043;-81
2022/06/30 13:11:04;;;;;;;9.15;3.47;;;;;;;;;;4946878;29;20047;-78
2022/06/30 13:13:29;;;;;;;5.53;3.50;;;;;;;;;;4940405;29;20481;-79
2022/06/30 13:16:16;;;;;;;7.40;3.70;;;;;;;;;;4947272;29;20040;-81
2022/06/30 13:19:04;;;;;;;6.95;3.72;;;;;;;;;;4938713;29;20047;-78
2022/06/30 13:21:50;;;;;;;6.85;3.80;;;;;;;;;;4937800;29;20052;-85
2022/06/30 13:24:35;;;;;;;12.25;3.80;;;;;;;;;;4938058;29;20397;-84
2022/06/30 13:27:21;;;;;;;8.90;3.70;;;;;;;;;;4937356;29;20047;-80
2022/06/30 13:30:07;;;;;;;8.40;3.90;;;;;;;;;;4937745;29;20486;-81
2022/06/30 13:32:53;;;;;;;8.40;3.92;;;;;;;;;;4938130;29;20051;-84
2022/06/30 13:35:39;;;;;;;7.72;3.70;;;;;;;;;;4938029;29;20047;-83
2022/06/30 13:38:25;;;;;;;8.40;3.72;;;;;;;;;;4937913;29;20044;-80
2022/06/30 13:41:10;;;;;;;8.88;3.85;;;;;;;;;;4937864;29;20408;-80
2022/06/30 13:43:55;;;;;;;6.05;3.50;;;;;;;;;;4938348;29;20051;-81
2022/06/30 13:46:41;;;;;;;7.43;3.50;;;;;;;;;;4937599;29;20047;-77
2022/06/30 13:49:28;;;;;;;7.93;3.40;;;;;;;;;;4937336;29;20051;-78
2022/06/30 13:52:13;;;;;;;5.15;3.78;;;;;;;;;;4937168;29;20051;-81
2022/06/30 13:54:59;;;;;;;14.07;3.85;;;;;;;;;;4937444;29;20056;-81
2022/06/30 13:57:44;;;;;;;8.85;3.58;;;;;;;;;;4937345;29;20055;-78
2022/06/30 14:00:30;;;;;;;9.27;3.45;;;;;;;;;;4937234;29;20056;-77
2022/06/30 14:03:17;;;;;;;6.43;3.85;;;;;;;;;;4937380;29;20410;-79
2022/06/30 14:06:03;;;;;;;7.65;3.47;;;;;;;;;;4937702;29;20469;-79
2022/06/30 14:08:48;;;;;;;8.50;3.78;;;;;;;;;;4937371;29;20044;-81
2022/06/30 14:11:34;;;;;;;10.73;3.63;;;;;;;;;;4937038;29;20047;-78
2022/06/30 14:14:20;;;;;;;12.13;4.10;;;;;;;;;;4936694;29;20047;-76
2022/06/30 14:17:06;;;;;;;6.72;3.53;;;;;;;;;;4936997;29;20047;-80
2022/06/30 14:19:51;;;;;;;8.00;3.72;;;;;;;;;;4937024;29;20409;-79
2022/06/30 14:22:37;;;;;;;9.15;4.00;;;;;;;;;;4943172;29;20044;-79
2022/06/30 14:25:25;;;;;;;9.52;3.60;;;;;;;;;;4937361;29;20052;-83
2022/06/30 14:28:13;;;;;;;6.97;3.42;;;;;;;;;;4936904;29;20051;-82
2022/06/30 14:30:58;;;;;;;9.45;3.72;;;;;;;;;;4936726;29;20069;-83
2022/06/30 14:33:44;;;;;;;6.97;3.63;;;;;;;;;;4943252;29;20040;-82
2022/06/30 14:36:29;;;;;;;9.50;4.10;;;;;;;;;;4936794;29;20051;-80
2022/06/30 14:39:16;;;;;;;8.15;3.75;;;;;;;;;;4936833;29;20047;-82
2022/06/30 14:45:08;;;;;;;9.82;4.03;;;;;;;;;;4936921;29;20043;-81
2022/06/30 14:47:54;;;;;;;9.48;3.50;;;;;;;;;;4936399;29;20051;-80
2022/06/30 14:50:39;;;;;;;10.23;3.95;;;;;;;;;;4923006;29;20397;-79
2022/06/30 14:53:24;;;;;;;10.15;4.03;;;;;;;;;;4942654;29;20051;-82
2022/06/30 14:56:10;;;;;;;11.25;4.75;;;;;;;;;;4936617;29;20051;-84
2022/06/30 14:58:56;;;;;;;7.88;3.33;;;;;;;;;;4936828;29;20051;-80
2022/06/30 15:01:41;;;;;;;13.40;4.20;;;;;;;;;;4936684;29;20393;-80
2022/06/30 15:04:27;;;;;;;19.27;4.70;;;;;;;;;;4936989;29;20481;-80
2022/06/30 15:07:13;;;;;;;13.00;3.95;;;;;;;;;;4937771;29;20389;-81
2022/06/30 15:09:58;;;;;;;12.40;5.72;;;;;;;;;;4936681;29;20056;-83
2022/06/30 15:12:44;;;;;;;9.70;5.50;;;;;;;;;;4941838;29;20052;-81
2022/06/30 15:15:29;;;;;;;11.82;5.22;;;;;;;;;;4928087;29;20052;-82
2022/06/30 15:18:16;;;;;;;8.32;4.80;;;;;;;;;;4928424;29;20059;-83
2022/06/30 15:24:10;;;;;;;11.43;5.05;;;;;;;;;;4936082;29;20051;-82
2022/06/30 15:26:56;;;;;;;8.13;4.97;;;;;;;;;;4928301;29;20048;-82
2022/06/30 15:29:44;;;;;;;11.32;5.00;;;;;;;;;;4936307;29;20048;-81
2022/06/30 15:32:31;;;;;;;13.85;5.00;;;;;;;;;;4942303;29;20052;-79
2022/06/30 15:35:17;;;;;;;15.10;5.07;;;;;;;;;;4936419;29;20043;-79
2022/06/30 15:38:03;;;;;;;11.90;5.10;;;;;;;;;;4936381;29;20047;-79
2022/06/30 15:40:48;;;;;;;13.52;5.00;;;;;;;;;;4935723;29;20051;-77
2022/06/30 15:43:33;;;;;;;8.90;4.65;;;;;;;;;;4935178;29;20056;-77
2022/06/30 15:46:19;;;;;;;9.68;4.60;;;;;;;;;;4942108;29;20044;-77
2022/06/30 15:49:05;;;;;;;8.18;4.88;;;;;;;;;;4935783;29;20052;-76
2022/06/30 15:51:50;;;;;;;8.82;4.47;;;;;;;;;;4936819;29;20485;-77
2022/06/30 15:54:37;;;;;;;11.15;5.15;;;;;;;;;;4941124;29;20059;-77
2022/06/30 15:57:22;;;;;;;11.50;5.38;;;;;;;;;;4939525;29;20048;-77
2022/06/30 16:00:09;;;;;;;11.90;5.43;;;;;;;;;;4938378;29;20055;-77
2022/06/30 16:02:57;;;;;;;9.50;5.00;;;;;;;;;;4937513;29;20065;-76
2022/06/30 16:05:43;;;;;;;14.63;5.50;;;;;;;;;;4945595;29;20055;-76
2022/06/30 16:08:28;;;;;;;11.40;5.00;;;;;;;;;;4939240;29;20040;-77
2022/06/30 16:11:14;;;;;;;11.27;5.40;;;;;;;;;;4939195;29;20043;-75
2022/06/30 16:14:02;;;;;;;11.30;5.57;;;;;;;;;;4939261;29;20048;-76
2022/06/30 16:16:47;;;;;;;12.55;5.90;;;;;;;;;;4939511;29;20048;-77
2022/06/30 16:19:35;;;;;;;13.43;5.32;;;;;;;;;;4939906;29;20040;-77
2022/06/30 16:22:21;;;;;;;11.43;5.20;;;;;;;;;;4945631;29;20051;-77
2022/06/30 16:25:07;;;;;;;11.57;5.32;;;;;;;;;;4939132;29;20051;-79
2022/06/30 16:27:54;;;;;;;15.05;6.20;;;;;;;;;;4939013;29;20051;-81
2022/06/30 16:30:40;;;;;;;20.20;6.07;;;;;;;;;;4939235;29;20040;-79
2022/06/30 16:33:26;;;;;;;9.60;4.90;;;;;;;;;;4938913;29;20665;-79
2022/06/30 16:36:11;;;;;;;11.15;4.45;;;;;;;;;;4938550;29;20052;-79
2022/06/30 16:38:57;;;;;;;12.05;4.10;;;;;;;;;;4938086;29;20414;-79
2022/06/30 16:41:43;;;;;;;11.85;4.65;;;;;;;;;;4938587;29;20043;-77
2022/06/30 16:44:28;;;;;;;18.98;5.75;;;;;;;;;;4939242;29;20485;-76
2022/06/30 16:47:15;;;;;;;10.98;5.03;;;;;;;;;;4936666;29;20044;-76
2022/06/30 16:50:03;;;;;;;15.80;4.63;;;;;;;;;;4936330;29;20052;-77
2022/06/30 16:52:48;;;;;;;12.80;5.13;;;;;;;;;;4936314;29;20051;-77
2022/06/30 16:55:34;;;;;;;8.10;4.65;;;;;;;;;;4937340;29;20043;-76
2022/06/30 16:58:19;;;;;;;15.90;4.82;;;;;;;;;;4938612;29;20043;-76
2022/06/30 17:01:08;;;;;;;12.40;5.45;;;;;;;;;;4938112;29;20048;-76